sensor_id;sensor_type;location;lat;lon;timestamp;P1;durP1;ratioP1;P2;durP2;ratioP2
18066;SDS011;9158;51.528;7.192;2022-08-19T00:00:10;6.85;;;6.25;;
18066;SDS011;9158;51.528;7.192;2022-08-19T00:00:44;8.88;;;7.47;;
18066;SDS011;9158;51.528;7.192;2022-08-19T00:01:16;7.13;;;6.50;;
18066;SDS011;9158;51.528;7.192;2022-08-19T00:01:48;7.28;;;6.65;;
18066;SDS011;9158;51.528;7.192;2022-08-19T00:02:20;8.13;;;7.30;;
18066;SDS011;9158;51.528;7.192;2022-08-19T00:02:52;6.93;;;6.22;;
18066;SDS011;9158;51.528;7.192;2022-08-19T00:03:23;7.63;;;6.95;;
18066;SDS011;9158;51.528;7.192;2022-08-19T00:03:54;6.50;;;6.00;;
18066;SDS011;9158;51.528;7.192;2022-08-19T00:04:27;7.65;;;6.72;;
18066;SDS011;9158;51.528;7.192;2022-08-19T00:04:59;7.75;;;6.97;;
18066;SDS011;9158;51.528;7.192;2022-08-19T00:05:30;7.18;;;6.47;;
18066;SDS011;9158;51.528;7.192;2022-08-19T00:06:03;6.53;;;6.03;;
18066;SDS011;9158;51.528;7.192;2022-08-19T00:06:34;6.93;;;6.32;;
18066;SDS011;9158;51.528;7.192;2022-08-19T00:07:06;7.30;;;6.60;;
18066;SDS011;9158;51.528;7.192;2022-08-19T00:07:38;7.45;;;6.78;;
18066;SDS011;9158;51.528;7.192;2022-08-19T00:08:10;7.72;;;7.13;;
18066;SDS011;9158;51.528;7.192;2022-08-19T00:08:41;6.18;;;5.75;;
18066;SDS011;9158;51.528;7.192;2022-08-19T00:09:14;7.18;;;6.65;;
18066;SDS011;9158;51.528;7.192;2022-08-19T00:09:47;7.28;;;6.68;;
18066;SDS011;9158;51.528;7.192;2022-08-19T00:10:19;8.03;;;6.60;;
18066;SDS011;9158;51.528;7.192;2022-08-19T00:10:52;7.45;;;6.75;;
18066;SDS011;9158;51.528;7.192;2022-08-19T00:11:24;7.45;;;6.70;;
18066;SDS011;9158;51.528;7.192;2022-08-19T00:11:58;8.00;;;7.07;;
18066;SDS011;9158;51.528;7.192;2022-08-19T00:12:29;7.20;;;6.60;;
18066;SDS011;9158;51.528;7.192;2022-08-19T00:13:01;7.55;;;6.95;;
18066;SDS011;9158;51.528;7.192;2022-08-19T00:13:32;8.00;;;7.30;;
18066;SDS011;9158;51.528;7.192;2022-08-19T00:14:04;8.88;;;8.13;;
18066;SDS011;9158;51.528;7.192;2022-08-19T00:14:38;7.55;;;6.85;;
18066;SDS011;9158;51.528;7.192;2022-08-19T00:15:12;7.40;;;6.80;;
18066;SDS011;9158;51.528;7.192;2022-08-19T00:15:46;8.80;;;7.40;;
18066;SDS011;9158;51.528;7.192;2022-08-19T00:16:17;7.63;;;6.93;;
18066;SDS011;9158;51.528;7.192;2022-08-19T00:16:50;7.80;;;7.00;;
18066;SDS011;9158;51.528;7.192;2022-08-19T00:17:24;8.07;;;6.95;;
18066;SDS011;9158;51.528;7.192;2022-08-19T00:17:55;7.60;;;6.90;;
18066;SDS011;9158;51.528;7.192;2022-08-19T00:18:26;8.00;;;7.30;;
18066;SDS011;9158;51.528;7.192;2022-08-19T00:18:58;7.38;;;6.68;;
18066;SDS011;9158;51.528;7.192;2022-08-19T00:19:29;7.20;;;6.50;;
18066;SDS011;9158;51.528;7.192;2022-08-19T00:20:02;6.90;;;6.20;;
18066;SDS011;9158;51.528;7.192;2022-08-19T00:20:34;7.72;;;6.95;;
18066;SDS011;9158;51.528;7.192;2022-08-19T00:21:05;7.60;;;6.90;;
18066;SDS011;9158;51.528;7.192;2022-08-19T00:21:39;6.68;;;6.18;;
18066;SDS011;9158;51.528;7.192;2022-08-19T00:22:11;7.75;;;6.55;;
18066;SDS011;9158;51.528;7.192;2022-08-19T00:22:42;7.07;;;6.53;;
18066;SDS011;9158;51.528;7.192;2022-08-19T00:23:14;6.65;;;6.15;;
18066;SDS011;9158;51.528;7.192;2022-08-19T00:23:46;8.68;;;6.70;;
18066;SDS011;9158;51.528;7.192;2022-08-19T00:24:17;8.57;;;6.70;;
18066;SDS011;9158;51.528;7.192;2022-08-19T00:24:49;6.50;;;6.00;;
18066;SDS011;9158;51.528;7.192;2022-08-19T00:25:21;7.70;;;7.00;;
18066;SDS011;9158;51.528;7.192;2022-08-19T00:25:53;6.70;;;6.10;;
18066;SDS011;9158;51.528;7.192;2022-08-19T00:26:24;6.93;;;6.32;;
18066;SDS011;9158;51.528;7.192;2022-08-19T00:26:56;6.93;;;6.32;;
18066;SDS011;9158;51.528;7.192;2022-08-19T00:27:28;6.57;;;6.07;;
18066;SDS011;9158;51.528;7.192;2022-08-19T00:27:59;6.85;;;6.35;;
18066;SDS011;9158;51.528;7.192;2022-08-19T00:28:31;7.88;;;6.55;;
18066;SDS011;9158;51.528;7.192;2022-08-19T00:29:03;7.13;;;6.50;;
18066;SDS011;9158;51.528;7.192;2022-08-19T00:29:35;6.45;;;5.85;;
18066;SDS011;9158;51.528;7.192;2022-08-19T00:30:08;7.25;;;6.75;;
18066;SDS011;9158;51.528;7.192;2022-08-19T00:30:40;6.95;;;6.45;;
18066;SDS011;9158;51.528;7.192;2022-08-19T00:31:11;6.82;;;6.32;;
18066;SDS011;9158;51.528;7.192;2022-08-19T00:31:43;9.48;;;7.32;;
18066;SDS011;9158;51.528;7.192;2022-08-19T00:32:15;7.63;;;6.88;;
18066;SDS011;9158;51.528;7.192;2022-08-19T00:32:46;7.38;;;6.50;;
18066;SDS011;9158;51.528;7.192;2022-08-19T00:33:18;7.15;;;6.55;;
18066;SDS011;9158;51.528;7.192;2022-08-19T00:33:49;6.60;;;6.10;;
18066;SDS011;9158;51.528;7.192;2022-08-19T00:34:21;7.13;;;6.47;;
18066;SDS011;9158;51.528;7.192;2022-08-19T00:34:52;7.70;;;6.80;;
18066;SDS011;9158;51.528;7.192;2022-08-19T00:35:24;7.13;;;6.35;;
18066;SDS011;9158;51.528;7.192;2022-08-19T00:35:57;8.75;;;7.35;;
18066;SDS011;9158;51.528;7.192;2022-08-19T00:36:28;7.47;;;6.75;;
18066;SDS011;9158;51.528;7.192;2022-08-19T00:37:02;8.63;;;7.80;;
18066;SDS011;9158;51.528;7.192;2022-08-19T00:37:33;7.78;;;7.07;;
18066;SDS011;9158;51.528;7.192;2022-08-19T00:38:05;7.60;;;6.93;;
18066;SDS011;9158;51.528;7.192;2022-08-19T00:38:37;7.70;;;6.93;;
18066;SDS011;9158;51.528;7.192;2022-08-19T00:39:12;10.75;;;7.43;;
18066;SDS011;9158;51.528;7.192;2022-08-19T00:39:45;6.78;;;6.18;;
18066;SDS011;9158;51.528;7.192;2022-08-19T00:40:17;7.00;;;6.32;;
18066;SDS011;9158;51.528;7.192;2022-08-19T00:40:49;7.95;;;7.13;;
18066;SDS011;9158;51.528;7.192;2022-08-19T00:41:23;6.55;;;6.05;;
18066;SDS011;9158;51.528;7.192;2022-08-19T00:41:55;6.72;;;6.22;;
18066;SDS011;9158;51.528;7.192;2022-08-19T00:42:27;7.80;;;7.10;;
18066;SDS011;9158;51.528;7.192;2022-08-19T00:42:58;7.80;;;7.20;;
18066;SDS011;9158;51.528;7.192;2022-08-19T00:43:30;8.70;;;7.47;;
18066;SDS011;9158;51.528;7.192;2022-08-19T00:44:03;10.25;;;7.35;;
18066;SDS011;9158;51.528;7.192;2022-08-19T00:44:35;7.63;;;7.03;;
18066;SDS011;9158;51.528;7.192;2022-08-19T00:45:09;8.45;;;7.60;;
18066;SDS011;9158;51.528;7.192;2022-08-19T00:45:42;7.43;;;6.82;;
18066;SDS011;9158;51.528;7.192;2022-08-19T00:46:14;7.65;;;7.05;;
18066;SDS011;9158;51.528;7.192;2022-08-19T00:46:46;7.82;;;7.10;;
18066;SDS011;9158;51.528;7.192;2022-08-19T00:47:19;10.80;;;8.25;;
18066;SDS011;9158;51.528;7.192;2022-08-19T00:47:50;7.97;;;7.00;;
18066;SDS011;9158;51.528;7.192;2022-08-19T00:48:22;7.40;;;6.75;;
18066;SDS011;9158;51.528;7.192;2022-08-19T00:48:53;8.35;;;7.45;;
18066;SDS011;9158;51.528;7.192;2022-08-19T00:49:27;8.60;;;7.20;;
18066;SDS011;9158;51.528;7.192;2022-08-19T00:50:04;8.32;;;6.68;;
18066;SDS011;9158;51.528;7.192;2022-08-19T00:50:35;7.50;;;6.90;;
18066;SDS011;9158;51.528;7.192;2022-08-19T00:51:10;7.68;;;7.03;;
18066;SDS011;9158;51.528;7.192;2022-08-19T00:51:42;7.55;;;6.75;;
18066;SDS011;9158;51.528;7.192;2022-08-19T00:52:18;7.72;;;7.13;;
18066;SDS011;9158;51.528;7.192;2022-08-19T00:52:53;7.18;;;6.57;;
18066;SDS011;9158;51.528;7.192;2022-08-19T00:53:26;7.50;;;6.78;;
18066;SDS011;9158;51.528;7.192;2022-08-19T00:54:02;7.18;;;6.50;;
18066;SDS011;9158;51.528;7.192;2022-08-19T00:54:33;7.20;;;6.60;;
18066;SDS011;9158;51.528;7.192;2022-08-19T00:55:09;7.10;;;6.50;;
18066;SDS011;9158;51.528;7.192;2022-08-19T00:55:42;7.22;;;6.70;;
18066;SDS011;9158;51.528;7.192;2022-08-19T00:56:16;7.63;;;6.82;;
18066;SDS011;9158;51.528;7.192;2022-08-19T00:56:50;6.75;;;6.25;;
18066;SDS011;9158;51.528;7.192;2022-08-19T00:57:23;7.47;;;6.88;;
18066;SDS011;9158;51.528;7.192;2022-08-19T00:57:59;8.00;;;7.20;;
18066;SDS011;9158;51.528;7.192;2022-08-19T00:58:34;7.03;;;6.43;;
18066;SDS011;9158;51.528;7.192;2022-08-19T00:59:06;7.28;;;6.57;;
18066;SDS011;9158;51.528;7.192;2022-08-19T00:59:39;7.43;;;6.72;;
18066;SDS011;9158;51.528;7.192;2022-08-19T01:00:14;7.22;;;6.63;;
18066;SDS011;9158;51.528;7.192;2022-08-19T01:00:48;6.93;;;6.35;;
18066;SDS011;9158;51.528;7.192;2022-08-19T01:01:19;8.77;;;6.38;;
18066;SDS011;9158;51.528;7.192;2022-08-19T01:01:51;6.90;;;6.30;;
18066;SDS011;9158;51.528;7.192;2022-08-19T01:02:23;6.90;;;6.30;;
18066;SDS011;9158;51.528;7.192;2022-08-19T01:02:54;7.90;;;7.10;;
18066;SDS011;9158;51.528;7.192;2022-08-19T01:03:26;6.53;;;6.03;;
18066;SDS011;9158;51.528;7.192;2022-08-19T01:03:58;7.25;;;6.65;;
18066;SDS011;9158;51.528;7.192;2022-08-19T01:04:28;7.75;;;7.05;;
18066;SDS011;9158;51.528;7.192;2022-08-19T01:05:02;7.80;;;6.80;;
18066;SDS011;9158;51.528;7.192;2022-08-19T01:05:36;7.50;;;6.80;;
18066;SDS011;9158;51.528;7.192;2022-08-19T01:06:09;11.75;;;6.97;;
18066;SDS011;9158;51.528;7.192;2022-08-19T01:06:41;6.72;;;6.18;;
18066;SDS011;9158;51.528;7.192;2022-08-19T01:07:12;7.88;;;7.18;;
18066;SDS011;9158;51.528;7.192;2022-08-19T01:07:43;7.57;;;6.80;;
18066;SDS011;9158;51.528;7.192;2022-08-19T01:08:16;6.88;;;6.18;;
18066;SDS011;9158;51.528;7.192;2022-08-19T01:08:49;7.47;;;6.88;;
18066;SDS011;9158;51.528;7.192;2022-08-19T01:09:20;7.23;;;6.63;;
18066;SDS011;9158;51.528;7.192;2022-08-19T01:09:52;7.80;;;7.20;;
18066;SDS011;9158;51.528;7.192;2022-08-19T01:10:25;7.40;;;6.70;;
18066;SDS011;9158;51.528;7.192;2022-08-19T01:10:58;7.70;;;7.10;;
18066;SDS011;9158;51.528;7.192;2022-08-19T01:11:31;8.77;;;7.10;;
18066;SDS011;9158;51.528;7.192;2022-08-19T01:12:06;7.57;;;6.97;;
18066;SDS011;9158;51.528;7.192;2022-08-19T01:12:39;7.70;;;7.10;;
18066;SDS011;9158;51.528;7.192;2022-08-19T01:13:11;6.80;;;6.30;;
18066;SDS011;9158;51.528;7.192;2022-08-19T01:13:44;8.15;;;7.55;;
18066;SDS011;9158;51.528;7.192;2022-08-19T01:14:16;7.72;;;7.05;;
18066;SDS011;9158;51.528;7.192;2022-08-19T01:14:49;8.02;;;7.35;;
18066;SDS011;9158;51.528;7.192;2022-08-19T01:15:22;7.90;;;7.05;;
18066;SDS011;9158;51.528;7.192;2022-08-19T01:15:59;7.60;;;6.82;;
18066;SDS011;9158;51.528;7.192;2022-08-19T01:16:33;7.90;;;7.25;;
18066;SDS011;9158;51.528;7.192;2022-08-19T01:17:06;10.07;;;7.45;;
18066;SDS011;9158;51.528;7.192;2022-08-19T01:17:39;8.18;;;7.47;;
18066;SDS011;9158;51.528;7.192;2022-08-19T01:18:13;8.32;;;7.55;;
18066;SDS011;9158;51.528;7.192;2022-08-19T01:18:47;8.68;;;7.97;;
18066;SDS011;9158;51.528;7.192;2022-08-19T01:19:18;7.70;;;7.10;;
18066;SDS011;9158;51.528;7.192;2022-08-19T01:19:57;7.82;;;7.15;;
18066;SDS011;9158;51.528;7.192;2022-08-19T01:20:28;7.53;;;6.85;;
18066;SDS011;9158;51.528;7.192;2022-08-19T01:21:00;7.50;;;6.80;;
18066;SDS011;9158;51.528;7.192;2022-08-19T01:21:37;7.18;;;6.68;;
18066;SDS011;9158;51.528;7.192;2022-08-19T01:22:14;7.70;;;7.00;;
18066;SDS011;9158;51.528;7.192;2022-08-19T01:22:53;8.05;;;7.35;;
18066;SDS011;9158;51.528;7.192;2022-08-19T01:23:26;8.38;;;7.63;;
18066;SDS011;9158;51.528;7.192;2022-08-19T01:24:12;8.25;;;7.32;;
18066;SDS011;9158;51.528;7.192;2022-08-19T01:24:45;7.75;;;7.15;;
18066;SDS011;9158;51.528;7.192;2022-08-19T01:25:17;7.97;;;7.22;;
18066;SDS011;9158;51.528;7.192;2022-08-19T01:25:51;8.02;;;7.32;;
18066;SDS011;9158;51.528;7.192;2022-08-19T01:26:24;7.85;;;7.15;;
18066;SDS011;9158;51.528;7.192;2022-08-19T01:26:56;7.32;;;6.72;;
18066;SDS011;9158;51.528;7.192;2022-08-19T01:27:35;9.13;;;6.70;;
18066;SDS011;9158;51.528;7.192;2022-08-19T01:28:07;7.00;;;6.40;;
18066;SDS011;9158;51.528;7.192;2022-08-19T01:28:39;7.45;;;6.85;;
18066;SDS011;9158;51.528;7.192;2022-08-19T01:29:12;7.38;;;6.68;;
18066;SDS011;9158;51.528;7.192;2022-08-19T01:29:44;9.65;;;8.55;;
18066;SDS011;9158;51.528;7.192;2022-08-19T01:30:18;8.13;;;7.53;;
18066;SDS011;9158;51.528;7.192;2022-08-19T01:30:52;8.27;;;7.10;;
18066;SDS011;9158;51.528;7.192;2022-08-19T01:31:25;8.55;;;7.75;;
18066;SDS011;9158;51.528;7.192;2022-08-19T01:32:00;8.45;;;7.40;;
18066;SDS011;9158;51.528;7.192;2022-08-19T01:32:31;7.70;;;7.00;;
18066;SDS011;9158;51.528;7.192;2022-08-19T01:33:02;7.63;;;6.93;;
18066;SDS011;9158;51.528;7.192;2022-08-19T01:33:36;8.43;;;7.63;;
18066;SDS011;9158;51.528;7.192;2022-08-19T01:34:07;9.15;;;8.30;;
18066;SDS011;9158;51.528;7.192;2022-08-19T01:34:38;8.00;;;7.40;;
18066;SDS011;9158;51.528;7.192;2022-08-19T01:35:11;8.35;;;7.65;;
18066;SDS011;9158;51.528;7.192;2022-08-19T01:35:43;7.68;;;7.07;;
18066;SDS011;9158;51.528;7.192;2022-08-19T01:37:05;8.68;;;7.90;;
18066;SDS011;9158;51.528;7.192;2022-08-19T01:37:45;8.43;;;7.63;;
18066;SDS011;9158;51.528;7.192;2022-08-19T01:38:22;8.52;;;7.00;;
18066;SDS011;9158;51.528;7.192;2022-08-19T01:38:56;7.60;;;6.32;;
18066;SDS011;9158;51.528;7.192;2022-08-19T01:39:28;8.18;;;7.57;;
18066;SDS011;9158;51.528;7.192;2022-08-19T01:39:59;7.88;;;6.93;;
18066;SDS011;9158;51.528;7.192;2022-08-19T01:40:32;7.57;;;6.72;;
18066;SDS011;9158;51.528;7.192;2022-08-19T01:41:03;8.32;;;7.30;;
18066;SDS011;9158;51.528;7.192;2022-08-19T01:41:36;7.10;;;6.57;;
18066;SDS011;9158;51.528;7.192;2022-08-19T01:42:08;7.50;;;6.90;;
18066;SDS011;9158;51.528;7.192;2022-08-19T01:42:41;8.60;;;7.75;;
18066;SDS011;9158;51.528;7.192;2022-08-19T01:43:12;7.82;;;7.22;;
18066;SDS011;9158;51.528;7.192;2022-08-19T01:43:44;7.57;;;7.05;;
18066;SDS011;9158;51.528;7.192;2022-08-19T01:44:15;7.78;;;7.07;;
18066;SDS011;9158;51.528;7.192;2022-08-19T01:44:46;7.65;;;7.05;;
18066;SDS011;9158;51.528;7.192;2022-08-19T01:45:19;6.40;;;5.88;;
18066;SDS011;9158;51.528;7.192;2022-08-19T01:45:51;8.18;;;7.00;;
18066;SDS011;9158;51.528;7.192;2022-08-19T01:46:23;7.15;;;6.65;;
18066;SDS011;9158;51.528;7.192;2022-08-19T01:46:55;8.95;;;7.25;;
18066;SDS011;9158;51.528;7.192;2022-08-19T01:47:26;7.90;;;7.20;;
18066;SDS011;9158;51.528;7.192;2022-08-19T01:47:58;7.00;;;6.40;;
18066;SDS011;9158;51.528;7.192;2022-08-19T01:48:32;7.60;;;6.90;;
18066;SDS011;9158;51.528;7.192;2022-08-19T01:49:05;7.95;;;7.30;;
18066;SDS011;9158;51.528;7.192;2022-08-19T01:49:36;7.90;;;7.20;;
18066;SDS011;9158;51.528;7.192;2022-08-19T01:50:10;8.27;;;7.30;;
18066;SDS011;9158;51.528;7.192;2022-08-19T01:50:42;7.40;;;6.70;;
18066;SDS011;9158;51.528;7.192;2022-08-19T01:51:13;9.43;;;8.53;;
18066;SDS011;9158;51.528;7.192;2022-08-19T01:51:45;7.68;;;7.07;;
18066;SDS011;9158;51.528;7.192;2022-08-19T01:52:17;7.97;;;7.28;;
18066;SDS011;9158;51.528;7.192;2022-08-19T01:52:48;7.80;;;7.10;;
18066;SDS011;9158;51.528;7.192;2022-08-19T01:53:20;8.53;;;7.90;;
18066;SDS011;9158;51.528;7.192;2022-08-19T01:53:52;7.88;;;7.18;;
18066;SDS011;9158;51.528;7.192;2022-08-19T01:54:24;8.02;;;7.32;;
18066;SDS011;9158;51.528;7.192;2022-08-19T01:54:55;8.32;;;6.90;;
18066;SDS011;9158;51.528;7.192;2022-08-19T01:55:27;7.85;;;7.18;;
18066;SDS011;9158;51.528;7.192;2022-08-19T01:55:58;7.57;;;6.97;;
18066;SDS011;9158;51.528;7.192;2022-08-19T01:56:29;8.50;;;7.90;;
18066;SDS011;9158;51.528;7.192;2022-08-19T01:57:04;8.85;;;8.15;;
18066;SDS011;9158;51.528;7.192;2022-08-19T01:57:39;8.52;;;7.82;;
18066;SDS011;9158;51.528;7.192;2022-08-19T01:58:14;8.07;;;7.47;;
18066;SDS011;9158;51.528;7.192;2022-08-19T01:58:51;8.15;;;7.35;;
18066;SDS011;9158;51.528;7.192;2022-08-19T01:59:25;8.73;;;8.00;;
18066;SDS011;9158;51.528;7.192;2022-08-19T01:59:57;8.35;;;7.60;;
18066;SDS011;9158;51.528;7.192;2022-08-19T02:00:30;8.15;;;7.47;;
18066;SDS011;9158;51.528;7.192;2022-08-19T02:01:02;7.65;;;7.05;;
18066;SDS011;9158;51.528;7.192;2022-08-19T02:01:33;7.95;;;7.25;;
18066;SDS011;9158;51.528;7.192;2022-08-19T02:02:05;8.80;;;8.10;;
18066;SDS011;9158;51.528;7.192;2022-08-19T02:02:37;9.07;;;8.32;;
18066;SDS011;9158;51.528;7.192;2022-08-19T02:03:09;8.57;;;7.75;;
18066;SDS011;9158;51.528;7.192;2022-08-19T02:03:41;7.63;;;7.03;;
18066;SDS011;9158;51.528;7.192;2022-08-19T02:04:12;8.88;;;8.00;;
18066;SDS011;9158;51.528;7.192;2022-08-19T02:04:43;7.90;;;7.20;;
18066;SDS011;9158;51.528;7.192;2022-08-19T02:05:16;7.90;;;7.22;;
18066;SDS011;9158;51.528;7.192;2022-08-19T02:05:53;8.57;;;7.88;;
18066;SDS011;9158;51.528;7.192;2022-08-19T02:06:24;8.70;;;7.90;;
18066;SDS011;9158;51.528;7.192;2022-08-19T02:06:57;7.75;;;7.15;;
18066;SDS011;9158;51.528;7.192;2022-08-19T02:07:28;8.48;;;7.72;;
18066;SDS011;9158;51.528;7.192;2022-08-19T02:07:59;8.00;;;7.30;;
18066;SDS011;9158;51.528;7.192;2022-08-19T02:08:34;8.38;;;7.57;;
18066;SDS011;9158;51.528;7.192;2022-08-19T02:09:07;8.25;;;7.45;;
18066;SDS011;9158;51.528;7.192;2022-08-19T02:09:38;8.85;;;8.05;;
18066;SDS011;9158;51.528;7.192;2022-08-19T02:10:12;9.05;;;8.25;;
18066;SDS011;9158;51.528;7.192;2022-08-19T02:10:46;9.02;;;8.13;;
18066;SDS011;9158;51.528;7.192;2022-08-19T02:11:18;7.90;;;7.22;;
18066;SDS011;9158;51.528;7.192;2022-08-19T02:11:51;9.23;;;7.47;;
18066;SDS011;9158;51.528;7.192;2022-08-19T02:12:23;8.70;;;8.00;;
18066;SDS011;9158;51.528;7.192;2022-08-19T02:12:54;7.88;;;7.28;;
18066;SDS011;9158;51.528;7.192;2022-08-19T02:13:25;9.60;;;7.53;;
18066;SDS011;9158;51.528;7.192;2022-08-19T02:13:58;9.30;;;8.50;;
18066;SDS011;9158;51.528;7.192;2022-08-19T02:14:29;7.90;;;7.20;;
18066;SDS011;9158;51.528;7.192;2022-08-19T02:15:00;8.63;;;7.97;;
18066;SDS011;9158;51.528;7.192;2022-08-19T02:15:33;8.80;;;8.13;;
18066;SDS011;9158;51.528;7.192;2022-08-19T02:16:04;8.43;;;7.67;;
18066;SDS011;9158;51.528;7.192;2022-08-19T02:16:36;10.27;;;7.68;;
18066;SDS011;9158;51.528;7.192;2022-08-19T02:17:08;8.20;;;7.60;;
18066;SDS011;9158;51.528;7.192;2022-08-19T02:17:39;7.57;;;6.87;;
18066;SDS011;9158;51.528;7.192;2022-08-19T02:18:10;7.93;;;7.25;;
18066;SDS011;9158;51.528;7.192;2022-08-19T02:18:42;8.10;;;7.32;;
18066;SDS011;9158;51.528;7.192;2022-08-19T02:19:13;8.27;;;7.43;;
18066;SDS011;9158;51.528;7.192;2022-08-19T02:19:44;9.33;;;8.23;;
18066;SDS011;9158;51.528;7.192;2022-08-19T02:20:15;8.47;;;7.67;;
18066;SDS011;9158;51.528;7.192;2022-08-19T02:20:47;8.43;;;7.65;;
18066;SDS011;9158;51.528;7.192;2022-08-19T02:21:19;8.40;;;7.70;;
18066;SDS011;9158;51.528;7.192;2022-08-19T02:21:51;10.32;;;7.88;;
18066;SDS011;9158;51.528;7.192;2022-08-19T02:22:23;7.70;;;7.10;;
18066;SDS011;9158;51.528;7.192;2022-08-19T02:22:55;8.40;;;7.70;;
18066;SDS011;9158;51.528;7.192;2022-08-19T02:23:26;8.37;;;7.67;;
18066;SDS011;9158;51.528;7.192;2022-08-19T02:23:59;10.10;;;8.10;;
18066;SDS011;9158;51.528;7.192;2022-08-19T02:24:30;9.05;;;8.25;;
18066;SDS011;9158;51.528;7.192;2022-08-19T02:25:01;8.37;;;7.73;;
18066;SDS011;9158;51.528;7.192;2022-08-19T02:25:34;7.93;;;7.18;;
18066;SDS011;9158;51.528;7.192;2022-08-19T02:26:05;8.60;;;7.73;;
18066;SDS011;9158;51.528;7.192;2022-08-19T02:26:36;7.63;;;7.05;;
18066;SDS011;9158;51.528;7.192;2022-08-19T02:27:08;8.27;;;7.47;;
18066;SDS011;9158;51.528;7.192;2022-08-19T02:27:40;9.03;;;8.33;;
18066;SDS011;9158;51.528;7.192;2022-08-19T02:28:12;9.20;;;8.45;;
18066;SDS011;9158;51.528;7.192;2022-08-19T02:28:44;8.63;;;7.22;;
18066;SDS011;9158;51.528;7.192;2022-08-19T02:29:15;8.38;;;7.78;;
18066;SDS011;9158;51.528;7.192;2022-08-19T02:29:46;8.00;;;7.30;;
18066;SDS011;9158;51.528;7.192;2022-08-19T02:30:19;9.13;;;7.97;;
18066;SDS011;9158;51.528;7.192;2022-08-19T02:30:50;8.27;;;7.47;;
18066;SDS011;9158;51.528;7.192;2022-08-19T02:31:22;8.67;;;7.83;;
18066;SDS011;9158;51.528;7.192;2022-08-19T02:31:55;8.75;;;8.00;;
18066;SDS011;9158;51.528;7.192;2022-08-19T02:32:27;8.80;;;8.00;;
18066;SDS011;9158;51.528;7.192;2022-08-19T02:32:58;8.33;;;7.57;;
18066;SDS011;9158;51.528;7.192;2022-08-19T02:33:29;8.38;;;7.63;;
18066;SDS011;9158;51.528;7.192;2022-08-19T02:34:01;7.90;;;7.30;;
18066;SDS011;9158;51.528;7.192;2022-08-19T02:34:34;8.15;;;7.45;;
18066;SDS011;9158;51.528;7.192;2022-08-19T02:35:05;7.43;;;6.93;;
18066;SDS011;9158;51.528;7.192;2022-08-19T02:35:40;7.15;;;6.60;;
18066;SDS011;9158;51.528;7.192;2022-08-19T02:36:12;8.45;;;7.65;;
18066;SDS011;9158;51.528;7.192;2022-08-19T02:36:44;8.98;;;8.18;;
18066;SDS011;9158;51.528;7.192;2022-08-19T02:37:16;9.98;;;7.70;;
18066;SDS011;9158;51.528;7.192;2022-08-19T02:38:06;8.93;;;8.15;;
18066;SDS011;9158;51.528;7.192;2022-08-19T02:38:55;7.65;;;6.95;;
18066;SDS011;9158;51.528;7.192;2022-08-19T02:39:28;8.20;;;7.50;;
18066;SDS011;9158;51.528;7.192;2022-08-19T02:39:58;8.40;;;7.70;;
18066;SDS011;9158;51.528;7.192;2022-08-19T02:40:30;9.20;;;8.40;;
18066;SDS011;9158;51.528;7.192;2022-08-19T02:41:05;8.75;;;7.95;;
18066;SDS011;9158;51.528;7.192;2022-08-19T02:41:38;8.50;;;7.60;;
18066;SDS011;9158;51.528;7.192;2022-08-19T02:42:10;8.32;;;7.63;;
18066;SDS011;9158;51.528;7.192;2022-08-19T02:42:41;9.13;;;8.10;;
18066;SDS011;9158;51.528;7.192;2022-08-19T02:43:12;8.43;;;7.55;;
18066;SDS011;9158;51.528;7.192;2022-08-19T02:43:43;7.90;;;7.30;;
18066;SDS011;9158;51.528;7.192;2022-08-19T02:44:16;7.60;;;7.00;;
18066;SDS011;9158;51.528;7.192;2022-08-19T02:44:47;8.67;;;7.87;;
18066;SDS011;9158;51.528;7.192;2022-08-19T02:45:18;9.57;;;8.57;;
18066;SDS011;9158;51.528;7.192;2022-08-19T02:45:49;8.90;;;7.97;;
18066;SDS011;9158;51.528;7.192;2022-08-19T02:46:22;8.88;;;8.07;;
18066;SDS011;9158;51.528;7.192;2022-08-19T02:46:54;9.48;;;8.68;;
18066;SDS011;9158;51.528;7.192;2022-08-19T02:47:25;8.95;;;8.07;;
18066;SDS011;9158;51.528;7.192;2022-08-19T02:47:56;9.87;;;8.97;;
18066;SDS011;9158;51.528;7.192;2022-08-19T02:48:28;8.10;;;7.43;;
18066;SDS011;9158;51.528;7.192;2022-08-19T02:49:00;9.02;;;8.13;;
18066;SDS011;9158;51.528;7.192;2022-08-19T02:49:32;9.00;;;8.15;;
18066;SDS011;9158;51.528;7.192;2022-08-19T02:50:05;8.60;;;7.88;;
18066;SDS011;9158;51.528;7.192;2022-08-19T02:50:37;8.73;;;7.93;;
18066;SDS011;9158;51.528;7.192;2022-08-19T02:51:09;9.15;;;8.45;;
18066;SDS011;9158;51.528;7.192;2022-08-19T02:51:47;9.05;;;8.25;;
18066;SDS011;9158;51.528;7.192;2022-08-19T02:52:18;8.67;;;7.97;;
18066;SDS011;9158;51.528;7.192;2022-08-19T02:52:49;9.97;;;8.97;;
18066;SDS011;9158;51.528;7.192;2022-08-19T02:53:20;9.37;;;8.23;;
18066;SDS011;9158;51.528;7.192;2022-08-19T02:53:53;9.63;;;8.60;;
18066;SDS011;9158;51.528;7.192;2022-08-19T02:54:24;10.77;;;8.57;;
18066;SDS011;9158;51.528;7.192;2022-08-19T02:54:57;9.77;;;8.88;;
18066;SDS011;9158;51.528;7.192;2022-08-19T02:55:27;11.10;;;9.00;;
18066;SDS011;9158;51.528;7.192;2022-08-19T02:55:59;8.75;;;8.00;;
18066;SDS011;9158;51.528;7.192;2022-08-19T02:56:30;9.27;;;8.48;;
18066;SDS011;9158;51.528;7.192;2022-08-19T02:57:01;9.63;;;8.65;;
18066;SDS011;9158;51.528;7.192;2022-08-19T02:57:33;8.20;;;7.45;;
18066;SDS011;9158;51.528;7.192;2022-08-19T02:58:05;8.52;;;7.82;;
18066;SDS011;9158;51.528;7.192;2022-08-19T02:58:36;9.43;;;7.78;;
18066;SDS011;9158;51.528;7.192;2022-08-19T02:59:08;8.90;;;8.20;;
18066;SDS011;9158;51.528;7.192;2022-08-19T02:59:40;9.63;;;8.32;;
18066;SDS011;9158;51.528;7.192;2022-08-19T03:00:11;10.93;;;7.97;;
18066;SDS011;9158;51.528;7.192;2022-08-19T03:00:43;9.10;;;8.35;;
18066;SDS011;9158;51.528;7.192;2022-08-19T03:01:19;10.40;;;9.15;;
18066;SDS011;9158;51.528;7.192;2022-08-19T03:01:51;9.23;;;8.43;;
18066;SDS011;9158;51.528;7.192;2022-08-19T03:02:22;10.70;;;9.80;;
18066;SDS011;9158;51.528;7.192;2022-08-19T03:02:54;9.77;;;8.88;;
18066;SDS011;9158;51.528;7.192;2022-08-19T03:03:26;9.90;;;8.95;;
18066;SDS011;9158;51.528;7.192;2022-08-19T03:03:58;9.45;;;8.75;;
18066;SDS011;9158;51.528;7.192;2022-08-19T03:04:32;9.40;;;8.35;;
18066;SDS011;9158;51.528;7.192;2022-08-19T03:05:03;9.77;;;8.87;;
18066;SDS011;9158;51.528;7.192;2022-08-19T03:05:37;9.43;;;8.63;;
18066;SDS011;9158;51.528;7.192;2022-08-19T03:06:10;9.55;;;8.60;;
18066;SDS011;9158;51.528;7.192;2022-08-19T03:06:44;8.60;;;7.80;;
18066;SDS011;9158;51.528;7.192;2022-08-19T03:07:17;10.40;;;9.45;;
18066;SDS011;9158;51.528;7.192;2022-08-19T03:07:48;9.52;;;8.73;;
18066;SDS011;9158;51.528;7.192;2022-08-19T03:08:19;8.27;;;7.57;;
18066;SDS011;9158;51.528;7.192;2022-08-19T03:08:51;9.32;;;8.48;;
18066;SDS011;9158;51.528;7.192;2022-08-19T03:09:23;8.80;;;8.00;;
18066;SDS011;9158;51.528;7.192;2022-08-19T03:09:54;8.70;;;7.90;;
18066;SDS011;9158;51.528;7.192;2022-08-19T03:10:26;10.43;;;9.43;;
18066;SDS011;9158;51.528;7.192;2022-08-19T03:10:58;8.60;;;7.82;;
18066;SDS011;9158;51.528;7.192;2022-08-19T03:11:30;8.35;;;7.72;;
18066;SDS011;9158;51.528;7.192;2022-08-19T03:12:02;8.80;;;8.20;;
18066;SDS011;9158;51.528;7.192;2022-08-19T03:12:35;9.27;;;8.50;;
18066;SDS011;9158;51.528;7.192;2022-08-19T03:13:06;9.32;;;8.05;;
18066;SDS011;9158;51.528;7.192;2022-08-19T03:13:38;8.63;;;7.93;;
18066;SDS011;9158;51.528;7.192;2022-08-19T03:14:10;8.32;;;7.63;;
18066;SDS011;9158;51.528;7.192;2022-08-19T03:14:41;8.43;;;7.72;;
18066;SDS011;9158;51.528;7.192;2022-08-19T03:15:12;8.53;;;7.73;;
18066;SDS011;9158;51.528;7.192;2022-08-19T03:15:46;9.50;;;8.68;;
18066;SDS011;9158;51.528;7.192;2022-08-19T03:16:18;9.48;;;8.68;;
18066;SDS011;9158;51.528;7.192;2022-08-19T03:16:51;10.52;;;9.25;;
18066;SDS011;9158;51.528;7.192;2022-08-19T03:17:23;9.88;;;8.02;;
18066;SDS011;9158;51.528;7.192;2022-08-19T03:17:54;9.83;;;8.87;;
18066;SDS011;9158;51.528;7.192;2022-08-19T03:18:25;9.87;;;8.87;;
18066;SDS011;9158;51.528;7.192;2022-08-19T03:18:57;9.52;;;8.23;;
18066;SDS011;9158;51.528;7.192;2022-08-19T03:19:30;8.65;;;7.95;;